Pattonsburg, Missouri
Current Conditions -  °F | °C
As of 8:53 AM on Saturday 25 Oct 2014 (Local Time) from KLWD Reporting Station
NA  
Wind Chill: 56°   Ceiling: NA
Heat Index: 56°   Visibility: 10mi
Dew Point: 48°   Wind: 8mph
Humidity: 75%   Direction: 360°N
Pressure: 30.08"   Gusts: NA
Location:  40.05°N, 94.14°W
Report Text: KLWD 251353Z AUTO 36007KT 10SM 13/09 A3008 RMK AO2 SLP184 T01330089 $
Loading
Personal Weather Stations






























Interactive Weather Map
Tropical Storm Tracking
New forecast layout! Learn more

10-Day Weather Forecast

Advertisements
Track Severe Weather on mobile